Terminal Aerodrome Forecast
Issued by NWS

Home | Current Version | Previous Version | Text Only | Print | Product List | Glossary On
Versions: 1 2 3 4 5 6 7 8 9 10 11 12 13 14 15 16 17 18 19 20
000
FTUS43 KAPX 241120
TAFPLN
TAF
KPLN 241120Z 2412/2512 20010KT P6SM BKN100 WS020/23045KT
     FM241400 21012KT P6SM VCSH BKN100 WS020/23050KT
     FM241800 22012G20KT P6SM -SHRA OVC090 WS020/23045KT
     FM250000 23011G26KT 6SM -SHRA OVC050 WS020/24040KT
     FM250200 26011G25KT 2SM -SHRA OVC020
     FM250400 27011G24KT 3SM -SHRA OVC015
     FM250600 29011G23KT P6SM OVC025=

USA.gov is the U.S. government's official web portal to all federal, state and local government web resources and services.